sensor_id;sensor_type;location;lat;lon;timestamp;P1;durP1;ratioP1;P2;durP2;ratioP2
39654;SDS011;25336;59.944;11.010;2023-03-01T00:01:05;4.43;;;2.38;;
39654;SDS011;25336;59.944;11.010;2023-03-01T00:03:35;1.80;;;1.65;;
39654;SDS011;25336;59.944;11.010;2023-03-01T00:06:01;3.75;;;2.00;;
39654;SDS011;25336;59.944;11.010;2023-03-01T00:08:28;3.55;;;2.17;;
39654;SDS011;25336;59.944;11.010;2023-03-01T00:13:36;2.15;;;1.70;;
39654;SDS011;25336;59.944;11.010;2023-03-01T00:16:03;3.70;;;2.15;;
39654;SDS011;25336;59.944;11.010;2023-03-01T00:18:33;2.45;;;2.05;;
39654;SDS011;25336;59.944;11.010;2023-03-01T00:20:59;1.65;;;1.55;;
39654;SDS011;25336;59.944;11.010;2023-03-01T00:23:25;1.67;;;1.30;;
39654;SDS011;25336;59.944;11.010;2023-03-01T00:25:51;3.28;;;1.92;;
39654;SDS011;25336;59.944;11.010;2023-03-01T00:28:18;2.70;;;1.60;;
39654;SDS011;25336;59.944;11.010;2023-03-01T00:30:44;1.67;;;1.40;;
39654;SDS011;25336;59.944;11.010;2023-03-01T00:33:09;5.05;;;1.58;;
39654;SDS011;25336;59.944;11.010;2023-03-01T00:35:35;2.38;;;1.38;;
39654;SDS011;25336;59.944;11.010;2023-03-01T00:38:01;1.75;;;1.40;;
39654;SDS011;25336;59.944;11.010;2023-03-01T00:40:28;1.50;;;1.40;;
39654;SDS011;25336;59.944;11.010;2023-03-01T00:42:54;1.77;;;1.20;;
39654;SDS011;25336;59.944;11.010;2023-03-01T00:45:20;1.40;;;1.30;;
39654;SDS011;25336;59.944;11.010;2023-03-01T00:47:45;1.75;;;1.65;;
39654;SDS011;25336;59.944;11.010;2023-03-01T00:50:12;1.75;;;1.30;;
39654;SDS011;25336;59.944;11.010;2023-03-01T00:52:38;1.38;;;1.27;;
39654;SDS011;25336;59.944;11.010;2023-03-01T00:55:04;2.70;;;1.35;;
39654;SDS011;25336;59.944;11.010;2023-03-01T00:57:30;1.15;;;1.10;;
39654;SDS011;25336;59.944;11.010;2023-03-01T00:59:56;1.35;;;1.25;;
39654;SDS011;25336;59.944;11.010;2023-03-01T01:02:22;1.77;;;1.40;;
39654;SDS011;25336;59.944;11.010;2023-03-01T01:04:48;2.40;;;1.50;;
39654;SDS011;25336;59.944;11.010;2023-03-01T01:07:14;1.35;;;1.25;;
39654;SDS011;25336;59.944;11.010;2023-03-01T01:09:40;2.38;;;1.50;;
39654;SDS011;25336;59.944;11.010;2023-03-01T01:12:06;1.10;;;1.00;;
39654;SDS011;25336;59.944;11.010;2023-03-01T01:14:32;1.25;;;1.15;;
39654;SDS011;25336;59.944;11.010;2023-03-01T01:17:00;1.40;;;1.30;;
39654;SDS011;25336;59.944;11.010;2023-03-01T01:19:26;1.65;;;1.40;;
39654;SDS011;25336;59.944;11.010;2023-03-01T01:21:52;2.17;;;1.08;;
39654;SDS011;25336;59.944;11.010;2023-03-01T01:24:18;1.38;;;1.27;;
39654;SDS011;25336;59.944;11.010;2023-03-01T01:26:44;1.50;;;1.15;;
39654;SDS011;25336;59.944;11.010;2023-03-01T01:29:10;1.77;;;1.60;;
39654;SDS011;25336;59.944;11.010;2023-03-01T01:31:37;2.72;;;1.90;;
39654;SDS011;25336;59.944;11.010;2023-03-01T01:34:05;2.50;;;1.85;;
39654;SDS011;25336;59.944;11.010;2023-03-01T01:36:33;2.72;;;1.75;;
39654;SDS011;25336;59.944;11.010;2023-03-01T01:38:59;1.65;;;1.55;;
39654;SDS011;25336;59.944;11.010;2023-03-01T01:41:26;1.60;;;1.30;;
39654;SDS011;25336;59.944;11.010;2023-03-01T01:44:11;1.25;;;1.13;;
39654;SDS011;25336;59.944;11.010;2023-03-01T01:46:44;2.13;;;1.33;;
39654;SDS011;25336;59.944;11.010;2023-03-01T01:49:17;1.50;;;1.40;;
39654;SDS011;25336;59.944;11.010;2023-03-01T01:51:49;2.53;;;1.90;;
39654;SDS011;25336;59.944;11.010;2023-03-01T01:54:25;1.88;;;1.73;;
39654;SDS011;25336;59.944;11.010;2023-03-01T01:56:57;3.05;;;1.80;;
39654;SDS011;25336;59.944;11.010;2023-03-01T01:59:26;2.00;;;1.70;;
39654;SDS011;25336;59.944;11.010;2023-03-01T02:01:55;1.70;;;1.60;;
39654;SDS011;25336;59.944;11.010;2023-03-01T02:04:22;1.58;;;1.33;;
39654;SDS011;25336;59.944;11.010;2023-03-01T02:06:49;1.50;;;1.40;;
39654;SDS011;25336;59.944;11.010;2023-03-01T02:09:21;1.70;;;1.38;;
39654;SDS011;25336;59.944;11.010;2023-03-01T02:11:48;4.65;;;1.50;;
39654;SDS011;25336;59.944;11.010;2023-03-01T02:14:16;5.93;;;1.98;;
39654;SDS011;25336;59.944;11.010;2023-03-01T02:16:41;3.35;;;1.77;;
39654;SDS011;25336;59.944;11.010;2023-03-01T02:19:08;2.13;;;1.80;;
39654;SDS011;25336;59.944;11.010;2023-03-01T02:21:50;1.55;;;1.45;;
39654;SDS011;25336;59.944;11.010;2023-03-01T02:27:08;2.65;;;1.63;;
39654;SDS011;25336;59.944;11.010;2023-03-01T02:29:35;2.90;;;1.60;;
39654;SDS011;25336;59.944;11.010;2023-03-01T02:32:01;1.23;;;1.13;;
39654;SDS011;25336;59.944;11.010;2023-03-01T02:34:28;1.70;;;1.60;;
39654;SDS011;25336;59.944;11.010;2023-03-01T02:36:58;1.20;;;1.10;;
39654;SDS011;25336;59.944;11.010;2023-03-01T02:39:33;1.85;;;1.45;;
39654;SDS011;25336;59.944;11.010;2023-03-01T02:42:06;1.02;;;1.02;;
39654;SDS011;25336;59.944;11.010;2023-03-01T02:44:34;1.55;;;1.10;;
39654;SDS011;25336;59.944;11.010;2023-03-01T02:47:00;1.77;;;1.10;;
39654;SDS011;25336;59.944;11.010;2023-03-01T02:49:30;1.67;;;1.58;;
39654;SDS011;25336;59.944;11.010;2023-03-01T02:57:27;1.50;;;1.40;;
39654;SDS011;25336;59.944;11.010;2023-03-01T02:59:55;1.33;;;1.23;;
39654;SDS011;25336;59.944;11.010;2023-03-01T03:02:24;2.22;;;1.13;;
39654;SDS011;25336;59.944;11.010;2023-03-01T03:05:05;2.88;;;1.23;;
39654;SDS011;25336;59.944;11.010;2023-03-01T03:07:36;1.20;;;1.10;;
39654;SDS011;25336;59.944;11.010;2023-03-01T03:10:05;1.30;;;1.20;;
39654;SDS011;25336;59.944;11.010;2023-03-01T03:12:33;1.38;;;1.27;;
39654;SDS011;25336;59.944;11.010;2023-03-01T03:14:58;2.40;;;1.40;;
39654;SDS011;25336;59.944;11.010;2023-03-01T03:17:24;2.97;;;1.60;;
39654;SDS011;25336;59.944;11.010;2023-03-01T03:19:50;2.00;;;1.17;;
39654;SDS011;25336;59.944;11.010;2023-03-01T03:22:15;1.52;;;1.35;;
39654;SDS011;25336;59.944;11.010;2023-03-01T03:24:41;2.17;;;1.40;;
39654;SDS011;25336;59.944;11.010;2023-03-01T03:27:07;1.40;;;1.23;;
39654;SDS011;25336;59.944;11.010;2023-03-01T03:29:33;2.03;;;1.15;;
39654;SDS011;25336;59.944;11.010;2023-03-01T03:31:59;1.20;;;1.10;;
39654;SDS011;25336;59.944;11.010;2023-03-01T03:34:25;1.92;;;1.65;;
39654;SDS011;25336;59.944;11.010;2023-03-01T03:36:54;1.40;;;1.30;;
39654;SDS011;25336;59.944;11.010;2023-03-01T03:39:27;1.38;;;1.25;;
39654;SDS011;25336;59.944;11.010;2023-03-01T03:41:53;1.65;;;1.27;;
39654;SDS011;25336;59.944;11.010;2023-03-01T03:44:21;4.72;;;1.10;;
39654;SDS011;25336;59.944;11.010;2023-03-01T03:46:46;1.60;;;1.50;;
39654;SDS011;25336;59.944;11.010;2023-03-01T03:49:12;1.27;;;1.10;;
39654;SDS011;25336;59.944;11.010;2023-03-01T03:51:38;3.25;;;1.30;;
39654;SDS011;25336;59.944;11.010;2023-03-01T03:54:03;1.38;;;1.20;;
39654;SDS011;25336;59.944;11.010;2023-03-01T03:56:29;2.13;;;1.38;;
39654;SDS011;25336;59.944;11.010;2023-03-01T03:58:54;1.25;;;1.10;;
39654;SDS011;25336;59.944;11.010;2023-03-01T04:01:20;1.17;;;1.08;;
39654;SDS011;25336;59.944;11.010;2023-03-01T04:03:45;1.55;;;1.30;;
39654;SDS011;25336;59.944;11.010;2023-03-01T04:06:12;1.80;;;1.20;;
39654;SDS011;25336;59.944;11.010;2023-03-01T04:08:39;1.35;;;1.23;;
39654;SDS011;25336;59.944;11.010;2023-03-01T04:11:06;1.90;;;1.25;;
39654;SDS011;25336;59.944;11.010;2023-03-01T04:13:51;2.53;;;1.63;;
39654;SDS011;25336;59.944;11.010;2023-03-01T04:16:18;1.05;;;0.93;;
39654;SDS011;25336;59.944;11.010;2023-03-01T04:18:44;1.20;;;1.10;;
39654;SDS011;25336;59.944;11.010;2023-03-01T04:21:10;2.35;;;1.17;;
39654;SDS011;25336;59.944;11.010;2023-03-01T04:23:36;1.30;;;1.20;;
39654;SDS011;25336;59.944;11.010;2023-03-01T04:26:03;1.02;;;1.02;;
39654;SDS011;25336;59.944;11.010;2023-03-01T04:28:32;1.08;;;0.88;;
39654;SDS011;25336;59.944;11.010;2023-03-01T04:31:02;1.10;;;1.10;;
39654;SDS011;25336;59.944;11.010;2023-03-01T04:33:59;3.55;;;2.00;;
39654;SDS011;25336;59.944;11.010;2023-03-01T04:36:25;1.08;;;1.02;;
39654;SDS011;25336;59.944;11.010;2023-03-01T04:38:52;3.08;;;1.40;;
39654;SDS011;25336;59.944;11.010;2023-03-01T04:41:19;7.57;;;1.23;;
39654;SDS011;25336;59.944;11.010;2023-03-01T04:43:46;1.38;;;1.27;;
39654;SDS011;25336;59.944;11.010;2023-03-01T04:46:14;1.70;;;1.50;;
39654;SDS011;25336;59.944;11.010;2023-03-01T04:48:42;1.40;;;1.30;;
39654;SDS011;25336;59.944;11.010;2023-03-01T04:51:09;3.38;;;1.38;;
39654;SDS011;25336;59.944;11.010;2023-03-01T04:53:38;2.30;;;2.08;;
39654;SDS011;25336;59.944;11.010;2023-03-01T04:56:05;3.50;;;1.73;;
39654;SDS011;25336;59.944;11.010;2023-03-01T04:58:31;2.35;;;1.45;;
39654;SDS011;25336;59.944;11.010;2023-03-01T05:00:57;3.38;;;1.52;;
39654;SDS011;25336;59.944;11.010;2023-03-01T05:03:22;1.67;;;1.30;;
39654;SDS011;25336;59.944;11.010;2023-03-01T05:05:49;1.38;;;1.27;;
39654;SDS011;25336;59.944;11.010;2023-03-01T05:08:16;1.58;;;1.48;;
39654;SDS011;25336;59.944;11.010;2023-03-01T05:10:43;1.88;;;1.30;;
39654;SDS011;25336;59.944;11.010;2023-03-01T05:13:13;1.73;;;1.50;;
39654;SDS011;25336;59.944;11.010;2023-03-01T05:15:45;4.45;;;2.00;;
39654;SDS011;25336;59.944;11.010;2023-03-01T05:18:18;2.35;;;2.15;;
39654;SDS011;25336;59.944;11.010;2023-03-01T05:20:44;4.55;;;2.95;;
39654;SDS011;25336;59.944;11.010;2023-03-01T05:23:09;3.00;;;2.33;;
39654;SDS011;25336;59.944;11.010;2023-03-01T05:25:35;4.43;;;2.60;;
39654;SDS011;25336;59.944;11.010;2023-03-01T05:28:05;2.95;;;2.60;;
39654;SDS011;25336;59.944;11.010;2023-03-01T05:30:32;7.00;;;2.35;;
39654;SDS011;25336;59.944;11.010;2023-03-01T05:32:58;4.43;;;3.80;;
39654;SDS011;25336;59.944;11.010;2023-03-01T05:35:25;8.05;;;3.90;;
39654;SDS011;25336;59.944;11.010;2023-03-01T05:37:50;6.25;;;4.43;;
39654;SDS011;25336;59.944;11.010;2023-03-01T05:40:21;8.02;;;2.50;;
39654;SDS011;25336;59.944;11.010;2023-03-01T05:42:50;5.57;;;2.58;;
39654;SDS011;25336;59.944;11.010;2023-03-01T05:45:19;2.42;;;1.75;;
39654;SDS011;25336;59.944;11.010;2023-03-01T05:47:46;6.10;;;1.83;;
39654;SDS011;25336;59.944;11.010;2023-03-01T05:50:20;8.23;;;2.15;;
39654;SDS011;25336;59.944;11.010;2023-03-01T05:52:54;4.10;;;1.92;;
39654;SDS011;25336;59.944;11.010;2023-03-01T05:55:23;4.25;;;2.05;;
39654;SDS011;25336;59.944;11.010;2023-03-01T05:57:49;6.45;;;3.65;;
39654;SDS011;25336;59.944;11.010;2023-03-01T06:00:17;8.95;;;3.75;;
39654;SDS011;25336;59.944;11.010;2023-03-01T06:02:44;8.57;;;4.07;;
39654;SDS011;25336;59.944;11.010;2023-03-01T06:05:10;5.20;;;4.03;;
39654;SDS011;25336;59.944;11.010;2023-03-01T06:07:37;6.03;;;3.88;;
39654;SDS011;25336;59.944;11.010;2023-03-01T06:10:04;8.60;;;5.32;;
39654;SDS011;25336;59.944;11.010;2023-03-01T06:12:31;11.32;;;6.63;;
39654;SDS011;25336;59.944;11.010;2023-03-01T06:14:57;11.40;;;5.45;;
39654;SDS011;25336;59.944;11.010;2023-03-01T06:17:23;7.53;;;5.03;;
39654;SDS011;25336;59.944;11.010;2023-03-01T06:19:49;5.05;;;2.60;;
39654;SDS011;25336;59.944;11.010;2023-03-01T06:22:14;8.18;;;2.58;;
39654;SDS011;25336;59.944;11.010;2023-03-01T06:24:40;2.90;;;1.92;;
39654;SDS011;25336;59.944;11.010;2023-03-01T06:27:05;11.82;;;2.28;;
39654;SDS011;25336;59.944;11.010;2023-03-01T06:29:31;6.63;;;2.28;;
39654;SDS011;25336;59.944;11.010;2023-03-01T06:31:57;4.95;;;3.55;;
39654;SDS011;25336;59.944;11.010;2023-03-01T06:34:22;12.70;;;3.40;;
39654;SDS011;25336;59.944;11.010;2023-03-01T06:36:48;12.23;;;3.35;;
39654;SDS011;25336;59.944;11.010;2023-03-01T06:39:13;9.48;;;4.30;;
39654;SDS011;25336;59.944;11.010;2023-03-01T06:41:39;21.48;;;6.65;;
39654;SDS011;25336;59.944;11.010;2023-03-01T06:44:05;11.85;;;7.10;;
39654;SDS011;25336;59.944;11.010;2023-03-01T06:46:30;10.70;;;7.22;;
39654;SDS011;25336;59.944;11.010;2023-03-01T06:48:56;14.40;;;6.65;;
39654;SDS011;25336;59.944;11.010;2023-03-01T06:51:21;18.52;;;6.35;;
39654;SDS011;25336;59.944;11.010;2023-03-01T06:53:47;12.35;;;6.95;;
39654;SDS011;25336;59.944;11.010;2023-03-01T06:56:13;12.07;;;6.22;;
39654;SDS011;25336;59.944;11.010;2023-03-01T06:58:38;15.10;;;6.20;;
39654;SDS011;25336;59.944;11.010;2023-03-01T07:01:07;9.65;;;4.55;;
39654;SDS011;25336;59.944;11.010;2023-03-01T07:03:33;7.32;;;4.38;;
39654;SDS011;25336;59.944;11.010;2023-03-01T07:05:59;14.52;;;4.63;;
39654;SDS011;25336;59.944;11.010;2023-03-01T07:08:25;11.02;;;4.30;;
39654;SDS011;25336;59.944;11.010;2023-03-01T07:10:57;4.45;;;2.85;;
39654;SDS011;25336;59.944;11.010;2023-03-01T07:13:23;3.85;;;2.25;;
39654;SDS011;25336;59.944;11.010;2023-03-01T07:15:48;3.55;;;1.88;;
39654;SDS011;25336;59.944;11.010;2023-03-01T07:18:14;3.17;;;2.03;;
39654;SDS011;25336;59.944;11.010;2023-03-01T07:20:40;1.92;;;1.83;;
39654;SDS011;25336;59.944;11.010;2023-03-01T07:23:05;1.90;;;1.70;;
39654;SDS011;25336;59.944;11.010;2023-03-01T07:25:31;1.85;;;1.75;;
39654;SDS011;25336;59.944;11.010;2023-03-01T07:27:58;1.50;;;1.40;;
39654;SDS011;25336;59.944;11.010;2023-03-01T07:30:24;1.50;;;1.40;;
39654;SDS011;25336;59.944;11.010;2023-03-01T07:32:54;1.60;;;1.27;;
39654;SDS011;25336;59.944;11.010;2023-03-01T07:35:20;1.80;;;1.70;;
39654;SDS011;25336;59.944;11.010;2023-03-01T07:37:47;1.08;;;1.08;;
39654;SDS011;25336;59.944;11.010;2023-03-01T07:40:12;1.60;;;1.50;;
39654;SDS011;25336;59.944;11.010;2023-03-01T07:42:40;1.17;;;1.08;;
39654;SDS011;25336;59.944;11.010;2023-03-01T07:45:05;1.38;;;1.27;;
39654;SDS011;25336;59.944;11.010;2023-03-01T07:47:32;1.67;;;1.38;;
39654;SDS011;25336;59.944;11.010;2023-03-01T07:49:57;2.45;;;1.60;;
39654;SDS011;25336;59.944;11.010;2023-03-01T07:52:23;1.98;;;1.83;;
39654;SDS011;25336;59.944;11.010;2023-03-01T07:54:49;7.75;;;5.03;;
39654;SDS011;25336;59.944;11.010;2023-03-01T07:57:15;4.82;;;3.67;;
39654;SDS011;25336;59.944;11.010;2023-03-01T07:59:40;10.07;;;6.60;;
39654;SDS011;25336;59.944;11.010;2023-03-01T08:02:06;10.30;;;6.45;;
39654;SDS011;25336;59.944;11.010;2023-03-01T08:04:33;10.55;;;5.78;;
39654;SDS011;25336;59.944;11.010;2023-03-01T08:06:58;8.27;;;5.82;;
39654;SDS011;25336;59.944;11.010;2023-03-01T08:09:24;11.43;;;7.80;;
39654;SDS011;25336;59.944;11.010;2023-03-01T08:11:50;20.17;;;11.90;;
39654;SDS011;25336;59.944;11.010;2023-03-01T08:14:15;33.35;;;22.75;;
39654;SDS011;25336;59.944;11.010;2023-03-01T08:16:41;40.25;;;19.52;;
39654;SDS011;25336;59.944;11.010;2023-03-01T08:19:07;24.40;;;10.00;;
39654;SDS011;25336;59.944;11.010;2023-03-01T08:21:35;13.63;;;6.85;;
39654;SDS011;25336;59.944;11.010;2023-03-01T08:24:04;18.27;;;5.47;;
39654;SDS011;25336;59.944;11.010;2023-03-01T08:26:31;16.60;;;4.47;;
39654;SDS011;25336;59.944;11.010;2023-03-01T08:28:59;9.77;;;3.97;;
39654;SDS011;25336;59.944;11.010;2023-03-01T08:31:29;8.82;;;6.40;;
39654;SDS011;25336;59.944;11.010;2023-03-01T08:33:59;14.98;;;8.77;;
39654;SDS011;25336;59.944;11.010;2023-03-01T08:36:28;8.75;;;5.13;;
39654;SDS011;25336;59.944;11.010;2023-03-01T08:38:55;17.10;;;5.32;;
39654;SDS011;25336;59.944;11.010;2023-03-01T08:41:21;32.50;;;5.70;;
39654;SDS011;25336;59.944;11.010;2023-03-01T08:43:47;67.82;;;8.50;;
39654;SDS011;25336;59.944;11.010;2023-03-01T08:46:13;30.00;;;8.57;;
39654;SDS011;25336;59.944;11.010;2023-03-01T08:48:38;32.95;;;5.88;;
39654;SDS011;25336;59.944;11.010;2023-03-01T08:51:15;13.43;;;3.47;;
39654;SDS011;25336;59.944;11.010;2023-03-01T08:53:42;10.43;;;3.00;;
39654;SDS011;25336;59.944;11.010;2023-03-01T08:56:08;6.10;;;2.88;;
39654;SDS011;25336;59.944;11.010;2023-03-01T08:58:35;19.05;;;4.38;;
39654;SDS011;25336;59.944;11.010;2023-03-01T09:01:01;37.88;;;3.92;;
39654;SDS011;25336;59.944;11.010;2023-03-01T09:03:32;6.30;;;2.95;;
39654;SDS011;25336;59.944;11.010;2023-03-01T09:06:01;9.10;;;3.38;;
39654;SDS011;25336;59.944;11.010;2023-03-01T09:08:28;7.65;;;3.03;;
39654;SDS011;25336;59.944;11.010;2023-03-01T09:10:54;19.30;;;4.00;;
39654;SDS011;25336;59.944;11.010;2023-03-01T09:13:20;30.23;;;4.55;;
39654;SDS011;25336;59.944;11.010;2023-03-01T09:15:46;73.70;;;10.93;;
39654;SDS011;25336;59.944;11.010;2023-03-01T09:18:11;63.78;;;14.02;;
39654;SDS011;25336;59.944;11.010;2023-03-01T09:20:37;53.92;;;10.02;;
39654;SDS011;25336;59.944;11.010;2023-03-01T09:23:02;30.33;;;8.52;;
39654;SDS011;25336;59.944;11.010;2023-03-01T09:25:28;18.30;;;8.55;;
39654;SDS011;25336;59.944;11.010;2023-03-01T09:27:54;11.02;;;5.28;;
39654;SDS011;25336;59.944;11.010;2023-03-01T09:30:20;14.38;;;4.40;;
39654;SDS011;25336;59.944;11.010;2023-03-01T09:32:47;8.85;;;4.22;;
39654;SDS011;25336;59.944;11.010;2023-03-01T09:35:13;11.43;;;3.83;;
39654;SDS011;25336;59.944;11.010;2023-03-01T09:37:39;8.80;;;5.00;;
39654;SDS011;25336;59.944;11.010;2023-03-01T09:40:17;7.95;;;4.82;;
39654;SDS011;25336;59.944;11.010;2023-03-01T09:42:51;10.77;;;3.40;;
39654;SDS011;25336;59.944;11.010;2023-03-01T09:45:24;10.95;;;2.35;;
39654;SDS011;25336;59.944;11.010;2023-03-01T09:47:58;6.45;;;3.20;;
39654;SDS011;25336;59.944;11.010;2023-03-01T09:50:24;5.43;;;2.85;;
39654;SDS011;25336;59.944;11.010;2023-03-01T09:53:02;4.13;;;2.80;;
39654;SDS011;25336;59.944;11.010;2023-03-01T09:55:41;1.70;;;1.60;;
39654;SDS011;25336;59.944;11.010;2023-03-01T09:58:22;6.75;;;2.05;;
39654;SDS011;25336;59.944;11.010;2023-03-01T10:00:57;3.40;;;2.00;;
39654;SDS011;25336;59.944;11.010;2023-03-01T10:06:06;4.85;;;1.83;;
39654;SDS011;25336;59.944;11.010;2023-03-01T10:08:40;4.90;;;2.00;;
39654;SDS011;25336;59.944;11.010;2023-03-01T10:11:21;3.78;;;2.00;;
39654;SDS011;25336;59.944;11.010;2023-03-01T10:16:40;3.78;;;1.88;;
39654;SDS011;25336;59.944;11.010;2023-03-01T10:19:30;11.20;;;2.38;;
39654;SDS011;25336;59.944;11.010;2023-03-01T10:22:13;2.85;;;1.60;;
39654;SDS011;25336;59.944;11.010;2023-03-01T10:24:57;3.55;;;1.33;;
39654;SDS011;25336;59.944;11.010;2023-03-01T10:27:25;1.63;;;1.42;;
39654;SDS011;25336;59.944;11.010;2023-03-01T10:30:06;5.95;;;1.50;;
39654;SDS011;25336;59.944;11.010;2023-03-01T10:32:53;4.40;;;1.30;;
39654;SDS011;25336;59.944;11.010;2023-03-01T10:35:26;3.53;;;1.50;;
39654;SDS011;25336;59.944;11.010;2023-03-01T10:40:28;1.10;;;0.95;;
39654;SDS011;25336;59.944;11.010;2023-03-01T10:42:54;3.80;;;0.90;;
39654;SDS011;25336;59.944;11.010;2023-03-01T10:50:29;0.95;;;0.80;;
39654;SDS011;25336;59.944;11.010;2023-03-01T10:52:57;3.58;;;2.55;;
39654;SDS011;25336;59.944;11.010;2023-03-01T11:00:52;0.80;;;0.80;;
39654;SDS011;25336;59.944;11.010;2023-03-01T11:05:52;0.95;;;0.80;;
39654;SDS011;25336;59.944;11.010;2023-03-01T11:08:33;2.58;;;0.80;;
39654;SDS011;25336;59.944;11.010;2023-03-01T11:13:37;0.95;;;0.90;;
39654;SDS011;25336;59.944;11.010;2023-03-01T11:16:29;1.83;;;0.80;;
39654;SDS011;25336;59.944;11.010;2023-03-01T11:19:00;2.67;;;0.75;;
39654;SDS011;25336;59.944;11.010;2023-03-01T11:24:32;0.82;;;0.80;;
39654;SDS011;25336;59.944;11.010;2023-03-01T11:27:03;1.23;;;0.60;;
39654;SDS011;25336;59.944;11.010;2023-03-01T11:32:05;0.70;;;0.70;;
39654;SDS011;25336;59.944;11.010;2023-03-01T11:34:36;1.10;;;0.90;;
39654;SDS011;25336;59.944;11.010;2023-03-01T11:37:14;1.10;;;1.00;;
39654;SDS011;25336;59.944;11.010;2023-03-01T11:39:54;0.90;;;0.80;;
39654;SDS011;25336;59.944;11.010;2023-03-01T11:45:16;0.75;;;0.73;;
39654;SDS011;25336;59.944;11.010;2023-03-01T11:59:32;0.95;;;0.57;;
39654;SDS011;25336;59.944;11.010;2023-03-01T12:02:24;0.93;;;0.60;;
39654;SDS011;25336;59.944;11.010;2023-03-01T12:07:36;0.73;;;0.47;;
39654;SDS011;25336;59.944;11.010;2023-03-01T12:12:52;0.60;;;0.60;;
39654;SDS011;25336;59.944;11.010;2023-03-01T12:20:45;0.80;;;0.80;;
39654;SDS011;25336;59.944;11.010;2023-03-01T12:26:31;1.30;;;1.17;;
39654;SDS011;25336;59.944;11.010;2023-03-01T12:29:16;4.30;;;0.90;;
39654;SDS011;25336;59.944;11.010;2023-03-01T12:32:00;4.22;;;1.30;;
39654;SDS011;25336;59.944;11.010;2023-03-01T12:37:29;3.92;;;0.93;;
39654;SDS011;25336;59.944;11.010;2023-03-01T12:51:01;0.68;;;0.68;;
39654;SDS011;25336;59.944;11.010;2023-03-01T12:53:38;3.83;;;1.13;;
39654;SDS011;25336;59.944;11.010;2023-03-01T12:56:08;0.70;;;0.70;;
39654;SDS011;25336;59.944;11.010;2023-03-01T13:01:33;0.70;;;0.70;;
39654;SDS011;25336;59.944;11.010;2023-03-01T13:04:06;0.75;;;0.70;;
39654;SDS011;25336;59.944;11.010;2023-03-01T13:17:47;1.70;;;0.88;;
39654;SDS011;25336;59.944;11.010;2023-03-01T13:20:23;0.77;;;0.77;;
39654;SDS011;25336;59.944;11.010;2023-03-01T13:25:32;0.73;;;0.73;;
39654;SDS011;25336;59.944;11.010;2023-03-01T13:30:57;0.70;;;0.70;;
39654;SDS011;25336;59.944;11.010;2023-03-01T13:35:52;0.65;;;0.45;;
39654;SDS011;25336;59.944;11.010;2023-03-01T13:41:15;0.63;;;0.60;;
39654;SDS011;25336;59.944;11.010;2023-03-01T13:44:01;0.60;;;0.60;;
39654;SDS011;25336;59.944;11.010;2023-03-01T13:46:38;1.85;;;1.75;;
39654;SDS011;25336;59.944;11.010;2023-03-01T13:49:04;1.10;;;0.63;;
39654;SDS011;25336;59.944;11.010;2023-03-01T13:51:30;0.70;;;0.70;;
39654;SDS011;25336;59.944;11.010;2023-03-01T13:53:56;0.65;;;0.65;;
39654;SDS011;25336;59.944;11.010;2023-03-01T13:56:24;0.50;;;0.50;;
39654;SDS011;25336;59.944;11.010;2023-03-01T14:03:57;1.88;;;1.13;;
39654;SDS011;25336;59.944;11.010;2023-03-01T14:06:27;5.63;;;3.92;;
39654;SDS011;25336;59.944;11.010;2023-03-01T14:09:14;3.58;;;2.90;;
39654;SDS011;25336;59.944;11.010;2023-03-01T14:20:23;0.50;;;0.50;;
39654;SDS011;25336;59.944;11.010;2023-03-01T14:22:52;0.70;;;0.70;;
39654;SDS011;25336;59.944;11.010;2023-03-01T14:27:52;0.60;;;0.60;;
39654;SDS011;25336;59.944;11.010;2023-03-01T14:30:31;1.45;;;1.35;;
39654;SDS011;25336;59.944;11.010;2023-03-01T14:33:15;3.00;;;2.80;;
39654;SDS011;25336;59.944;11.010;2023-03-01T14:36:07;1.35;;;0.90;;
39654;SDS011;25336;59.944;11.010;2023-03-01T14:38:38;1.00;;;0.68;;
39654;SDS011;25336;59.944;11.010;2023-03-01T14:41:11;2.00;;;0.80;;
39654;SDS011;25336;59.944;11.010;2023-03-01T14:43:47;1.00;;;1.00;;
39654;SDS011;25336;59.944;11.010;2023-03-01T14:46:24;0.90;;;0.90;;
39654;SDS011;25336;59.944;11.010;2023-03-01T14:48:57;1.55;;;0.73;;
39654;SDS011;25336;59.944;11.010;2023-03-01T14:51:35;0.70;;;0.70;;
39654;SDS011;25336;59.944;11.010;2023-03-01T14:54:02;1.37;;;0.70;;
39654;SDS011;25336;59.944;11.010;2023-03-01T14:56:29;1.33;;;0.80;;
39654;SDS011;25336;59.944;11.010;2023-03-01T14:59:09;0.90;;;0.90;;
39654;SDS011;25336;59.944;11.010;2023-03-01T15:01:36;0.88;;;0.70;;
39654;SDS011;25336;59.944;11.010;2023-03-01T15:04:02;0.70;;;0.70;;
39654;SDS011;25336;59.944;11.010;2023-03-01T15:06:28;0.70;;;0.70;;
39654;SDS011;25336;59.944;11.010;2023-03-01T15:08:54;1.33;;;0.77;;
39654;SDS011;25336;59.944;11.010;2023-03-01T15:11:23;8.70;;;3.17;;
39654;SDS011;25336;59.944;11.010;2023-03-01T15:13:52;2.05;;;1.45;;
39654;SDS011;25336;59.944;11.010;2023-03-01T15:16:20;1.83;;;1.52;;
39654;SDS011;25336;59.944;11.010;2023-03-01T15:18:58;1.88;;;1.40;;
39654;SDS011;25336;59.944;11.010;2023-03-01T15:21:27;1.13;;;1.02;;
39654;SDS011;25336;59.944;11.010;2023-03-01T15:26:44;1.85;;;1.00;;
39654;SDS011;25336;59.944;11.010;2023-03-01T15:32:02;0.85;;;0.85;;
39654;SDS011;25336;59.944;11.010;2023-03-01T15:40:17;3.78;;;3.45;;
39654;SDS011;25336;59.944;11.010;2023-03-01T15:43:03;1.92;;;1.45;;
39654;SDS011;25336;59.944;11.010;2023-03-01T15:45:31;1.83;;;1.08;;
39654;SDS011;25336;59.944;11.010;2023-03-01T15:48:05;1.10;;;1.10;;
39654;SDS011;25336;59.944;11.010;2023-03-01T15:50:42;2.42;;;2.22;;
39654;SDS011;25336;59.944;11.010;2023-03-01T15:53:12;3.25;;;2.97;;
39654;SDS011;25336;59.944;11.010;2023-03-01T15:55:40;2.33;;;1.87;;
39654;SDS011;25336;59.944;11.010;2023-03-01T16:00:36;1.33;;;0.77;;
39654;SDS011;25336;59.944;11.010;2023-03-01T16:03:02;1.42;;;0.80;;
39654;SDS011;25336;59.944;11.010;2023-03-01T16:05:29;1.00;;;0.90;;
39654;SDS011;25336;59.944;11.010;2023-03-01T16:07:57;0.77;;;0.65;;
39654;SDS011;25336;59.944;11.010;2023-03-01T16:10:22;1.13;;;1.02;;
39654;SDS011;25336;59.944;11.010;2023-03-01T16:12:49;0.88;;;0.88;;
39654;SDS011;25336;59.944;11.010;2023-03-01T16:15:21;1.85;;;0.70;;
39654;SDS011;25336;59.944;11.010;2023-03-01T16:17:48;1.00;;;0.70;;
39654;SDS011;25336;59.944;11.010;2023-03-01T16:20:14;2.10;;;0.70;;
39654;SDS011;25336;59.944;11.010;2023-03-01T16:22:41;4.82;;;0.98;;
39654;SDS011;25336;59.944;11.010;2023-03-01T16:25:10;14.57;;;9.07;;
39654;SDS011;25336;59.944;11.010;2023-03-01T16:27:37;8.70;;;5.82;;
39654;SDS011;25336;59.944;11.010;2023-03-01T16:30:04;8.02;;;5.80;;
39654;SDS011;25336;59.944;11.010;2023-03-01T16:32:30;29.23;;;19.50;;
39654;SDS011;25336;59.944;11.010;2023-03-01T16:34:56;18.25;;;11.20;;
39654;SDS011;25336;59.944;11.010;2023-03-01T16:37:22;6.93;;;3.00;;
39654;SDS011;25336;59.944;11.010;2023-03-01T16:39:47;4.18;;;2.47;;
39654;SDS011;25336;59.944;11.010;2023-03-01T16:42:16;7.10;;;6.18;;
39654;SDS011;25336;59.944;11.010;2023-03-01T16:44:42;2.80;;;2.28;;
39654;SDS011;25336;59.944;11.010;2023-03-01T16:47:08;2.53;;;2.33;;
39654;SDS011;25336;59.944;11.010;2023-03-01T16:49:33;1.60;;;1.50;;
39654;SDS011;25336;59.944;11.010;2023-03-01T16:51:59;2.35;;;2.15;;
39654;SDS011;25336;59.944;11.010;2023-03-01T16:54:25;3.90;;;3.60;;
39654;SDS011;25336;59.944;11.010;2023-03-01T16:56:50;2.95;;;2.70;;
39654;SDS011;25336;59.944;11.010;2023-03-01T16:59:16;3.45;;;3.15;;
39654;SDS011;25336;59.944;11.010;2023-03-01T17:01:44;1.75;;;1.60;;